createdAt,value
2022-09-15T00:00:04.991Z,62.03
2022-09-15T00:02:32.381Z,41.30
2022-09-15T00:04:59.911Z,31.60
2022-09-15T00:07:27.297Z,36.30
2022-09-15T00:09:54.972Z,37.65
2022-09-15T00:12:23.820Z,40.90
2022-09-15T00:14:51.199Z,45.93
2022-09-15T00:17:18.578Z,37.08
2022-09-15T00:19:46.070Z,29.83
2022-09-15T00:22:13.506Z,39.85
2022-09-15T00:24:40.904Z,37.13
2022-09-15T00:27:08.798Z,41.92
2022-09-15T00:29:37.661Z,35.88
2022-09-15T00:32:05.729Z,42.08
2022-09-15T00:34:33.151Z,32.25
2022-09-15T00:37:00.683Z,30.65
2022-09-15T00:39:28.720Z,30.38
2022-09-15T00:41:56.180Z,30.90
2022-09-15T00:44:54.932Z,29.75
2022-09-15T00:47:27.329Z,35.45
2022-09-15T00:50:00.205Z,42.80
2022-09-15T00:52:32.393Z,36.63
2022-09-15T00:55:06.672Z,32.70
2022-09-15T00:57:37.593Z,30.92
2022-09-15T01:00:09.837Z,39.03
2022-09-15T01:02:39.061Z,93.32
2022-09-15T01:05:11.002Z,89.63
2022-09-15T01:07:42.001Z,43.55
2022-09-15T01:10:14.086Z,38.80
2022-09-15T01:12:42.146Z,39.75
2022-09-15T01:15:11.106Z,26.90
2022-09-15T01:17:50.141Z,33.00
2022-09-15T01:20:45.175Z,36.10
2022-09-15T01:23:39.279Z,35.67
2022-09-15T01:26:31.253Z,33.53
2022-09-15T01:29:31.123Z,32.95
2022-09-15T01:32:03.575Z,29.63
2022-09-15T01:34:37.326Z,27.52
2022-09-15T01:37:09.888Z,31.27
2022-09-15T01:39:43.167Z,30.77
2022-09-15T01:42:16.035Z,30.15
2022-09-15T01:44:49.036Z,32.55
2022-09-15T01:47:20.947Z,27.50
2022-09-15T01:49:51.887Z,26.98
2022-09-15T01:52:22.614Z,29.08
2022-09-15T01:54:55.509Z,29.95
2022-09-15T01:57:23.435Z,28.58
2022-09-15T01:59:55.356Z,29.15
2022-09-15T02:02:27.536Z,26.33
2022-09-15T02:05:00.635Z,29.73
2022-09-15T02:07:36.372Z,22.23
2022-09-15T02:10:10.769Z,26.48
2022-09-15T02:12:45.851Z,35.38
2022-09-15T02:15:21.495Z,26.95
2022-09-15T02:17:52.140Z,24.10
2022-09-15T02:20:25.388Z,22.88
2022-09-15T02:22:56.810Z,25.90
2022-09-15T02:25:28.777Z,22.75
2022-09-15T02:28:03.187Z,50.22
2022-09-15T02:30:35.237Z,36.83
2022-09-15T02:33:06.554Z,24.48
2022-09-15T02:35:36.468Z,20.77
2022-09-15T02:38:07.616Z,25.40
2022-09-15T02:40:36.352Z,25.08
2022-09-15T02:43:04.267Z,26.55
2022-09-15T02:45:33.544Z,28.70
2022-09-15T02:48:00.982Z,27.67
2022-09-15T02:50:28.430Z,22.75
2022-09-15T02:52:56.109Z,22.40
2022-09-15T02:55:25.165Z,18.90
2022-09-15T02:57:52.491Z,23.90
2022-09-15T03:00:20.041Z,24.23
2022-09-15T03:02:51.159Z,22.52
2022-09-15T03:05:21.005Z,21.67
2022-09-15T03:10:15.992Z,20.08
2022-09-15T03:12:45.223Z,19.88
2022-09-15T03:15:14.457Z,34.58
2022-09-15T03:17:43.690Z,37.22
2022-09-15T03:20:15.598Z,26.77
2022-09-15T03:22:43.343Z,21.55
2022-09-15T03:25:11.023Z,22.70
2022-09-15T03:27:38.811Z,27.15
2022-09-15T03:30:07.659Z,20.67
2022-09-15T03:32:35.913Z,23.15
2022-09-15T03:35:03.739Z,26.65
2022-09-15T03:37:33.211Z,23.05
2022-09-15T03:40:01.325Z,27.33
2022-09-15T03:42:28.699Z,19.95
2022-09-15T03:44:56.085Z,26.55
2022-09-15T03:47:23.458Z,27.70
2022-09-15T03:49:50.880Z,22.58
2022-09-15T03:52:18.437Z,24.73
2022-09-15T03:54:48.535Z,22.20
2022-09-15T03:57:15.963Z,16.42
2022-09-15T03:59:43.500Z,25.15
2022-09-15T04:02:10.942Z,19.95
2022-09-15T04:04:38.385Z,20.83
2022-09-15T04:07:05.911Z,18.92
2022-09-15T04:09:33.335Z,22.80
2022-09-15T04:12:02.693Z,23.55
2022-09-15T04:14:30.135Z,22.05
2022-09-15T04:16:57.462Z,20.95
2022-09-15T04:19:24.973Z,20.33
2022-09-15T04:21:52.381Z,25.17
2022-09-15T04:24:19.792Z,19.38
2022-09-15T04:26:47.301Z,20.48
2022-09-15T04:29:16.493Z,23.30
2022-09-15T04:31:43.992Z,20.48
2022-09-15T04:34:11.768Z,19.63
2022-09-15T04:36:39.286Z,21.90
2022-09-15T04:39:06.680Z,19.63
2022-09-15T04:41:34.286Z,19.55
2022-09-15T04:44:02.194Z,20.30
2022-09-15T04:46:31.188Z,21.63
2022-09-15T04:48:58.872Z,18.05
2022-09-15T04:51:26.408Z,18.83
2022-09-15T04:53:54.198Z,18.40
2022-09-15T04:56:23.903Z,20.52
2022-09-15T04:58:53.320Z,20.02
2022-09-15T05:01:23.360Z,19.48
2022-09-15T05:03:52.604Z,20.42
2022-09-15T05:06:21.638Z,19.67
2022-09-15T05:08:49.851Z,18.30
2022-09-15T05:11:18.360Z,19.15
2022-09-15T05:13:46.370Z,19.88
2022-09-15T05:16:16.258Z,19.08
2022-09-15T05:18:45.091Z,17.67
2022-09-15T05:21:15.708Z,18.75
2022-09-15T05:23:43.878Z,16.63
2022-09-15T05:26:13.508Z,18.65
2022-09-15T05:28:41.275Z,22.95
2022-09-15T05:31:10.671Z,19.80
2022-09-15T05:33:38.539Z,18.35
2022-09-15T05:36:06.539Z,21.30
2022-09-15T05:38:35.418Z,21.67
2022-09-15T05:41:03.803Z,22.07
2022-09-15T05:43:31.772Z,21.95
2022-09-15T05:45:59.195Z,16.40
2022-09-15T05:48:27.012Z,18.10
2022-09-15T05:50:55.991Z,17.60
2022-09-15T05:53:24.059Z,20.60
2022-09-15T05:55:56.601Z,20.15
2022-09-15T05:58:24.599Z,24.23
2022-09-15T06:00:52.430Z,20.23
2022-09-15T06:03:20.635Z,18.92
2022-09-15T06:05:48.238Z,19.20
2022-09-15T06:08:15.820Z,17.65
2022-09-15T06:10:43.302Z,20.58
2022-09-15T06:13:12.112Z,18.23
2022-09-15T06:15:39.578Z,20.45
2022-09-15T06:18:07.069Z,16.45
2022-09-15T06:20:35.683Z,19.30
2022-09-15T06:23:03.228Z,19.08
2022-09-15T06:25:30.598Z,18.52
2022-09-15T06:27:58.106Z,17.17
2022-09-15T06:30:27.126Z,19.42
2022-09-15T06:32:54.543Z,19.13
2022-09-15T06:35:21.989Z,17.27
2022-09-15T06:37:50.385Z,18.08
2022-09-15T06:40:17.887Z,20.80
2022-09-15T06:42:45.329Z,20.17
2022-09-15T06:45:13.004Z,16.65
2022-09-15T06:47:42.290Z,17.65
2022-09-15T06:50:10.452Z,20.65
2022-09-15T06:52:37.881Z,19.17
2022-09-15T06:55:05.762Z,20.88
2022-09-15T06:57:34.067Z,27.00
2022-09-15T07:00:02.466Z,35.03
2022-09-15T07:02:29.967Z,33.42
2022-09-15T07:04:59.487Z,30.90
2022-09-15T07:07:28.116Z,32.87
2022-09-15T07:09:55.571Z,28.58
2022-09-15T07:12:23.107Z,28.42
2022-09-15T07:14:50.697Z,27.70
2022-09-15T07:17:18.131Z,31.88
2022-09-15T07:19:45.679Z,27.10
2022-09-15T07:22:14.656Z,26.35
2022-09-15T07:24:42.061Z,28.00
2022-09-15T07:27:09.644Z,45.15
2022-09-15T07:29:37.898Z,29.70
2022-09-15T07:32:05.616Z,26.23
2022-09-15T07:34:33.743Z,24.75
2022-09-15T07:37:01.141Z,27.25
2022-09-15T07:39:30.067Z,22.38
2022-09-15T07:41:57.962Z,29.67
2022-09-15T07:44:25.528Z,21.10
2022-09-15T07:46:53.472Z,22.73
2022-09-15T07:49:20.928Z,23.73
2022-09-15T07:51:48.319Z,21.50
2022-09-15T07:54:19.550Z,19.63
2022-09-15T07:56:51.430Z,21.20
2022-09-15T07:59:18.937Z,20.35
2022-09-15T08:01:46.314Z,18.45
2022-09-15T08:04:13.793Z,19.42
2022-09-15T08:06:41.288Z,22.80
2022-09-15T08:09:08.674Z,22.13
2022-09-15T08:11:36.019Z,16.02
2022-09-15T08:14:05.035Z,16.35
2022-09-15T08:16:32.488Z,17.40
2022-09-15T08:19:00.654Z,19.23
2022-09-15T08:21:28.619Z,15.25
2022-09-15T08:23:58.047Z,20.27
2022-09-15T08:26:26.431Z,16.08
2022-09-15T08:28:54.016Z,16.83
2022-09-15T08:31:23.349Z,16.73
2022-09-15T08:33:52.530Z,14.05
2022-09-15T08:36:20.332Z,17.00
2022-09-15T08:38:48.298Z,15.85
2022-09-15T08:41:20.208Z,14.07
2022-09-15T08:43:54.950Z,13.13
2022-09-15T08:46:31.634Z,18.70
2022-09-15T08:49:05.456Z,14.90
2022-09-15T08:51:41.899Z,16.15
2022-09-15T08:54:16.781Z,14.75
2022-09-15T08:56:44.295Z,14.32
2022-09-15T08:59:14.895Z,15.57
2022-09-15T09:02:13.630Z,15.32
2022-09-15T09:05:02.751Z,13.32
2022-09-15T09:18:59.024Z,12.48
2022-09-15T09:21:31.694Z,10.60
2022-09-15T09:24:06.615Z,12.93
2022-09-15T09:26:37.114Z,14.60
2022-09-15T09:29:12.583Z,13.73
2022-09-15T09:45:14.877Z,14.13
2022-09-15T09:47:43.444Z,16.75
2022-09-15T09:50:36.142Z,13.73
2022-09-15T09:53:22.184Z,44.38
2022-09-15T09:55:49.682Z,50.72
2022-09-15T09:58:20.341Z,52.75
2022-09-15T10:00:49.546Z,70.07
2022-09-15T10:03:19.036Z,36.97
2022-09-15T10:06:01.605Z,47.53
2022-09-15T10:08:29.464Z,71.53
2022-09-15T10:11:05.706Z,27.17
2022-09-15T10:13:35.242Z,108.95
2022-09-15T10:16:06.863Z,111.25
2022-09-15T10:18:37.352Z,22.63
2022-09-15T10:21:08.484Z,20.38
2022-09-15T10:23:37.140Z,24.92
2022-09-15T10:26:30.886Z,14.77
2022-09-15T10:29:14.250Z,17.17
2022-09-15T10:31:44.534Z,16.27
2022-09-15T10:34:26.749Z,19.50
2022-09-15T10:37:01.204Z,17.40
2022-09-15T10:39:37.475Z,16.92
2022-09-15T10:42:12.187Z,19.55
2022-09-15T10:44:47.972Z,14.55
2022-09-15T10:47:27.598Z,17.25
2022-09-15T10:50:09.446Z,21.98
2022-09-15T10:52:49.912Z,17.40
2022-09-15T10:55:48.525Z,17.98
2022-09-15T10:58:29.704Z,14.90
2022-09-15T11:01:09.622Z,18.60
2022-09-15T11:03:54.494Z,17.63
2022-09-15T11:06:28.786Z,19.25
2022-09-15T11:09:13.763Z,18.85
2022-09-15T11:11:52.562Z,18.73
2022-09-15T11:14:38.664Z,13.73
2022-09-15T11:17:19.133Z,16.23
2022-09-15T11:20:03.678Z,17.02
2022-09-15T11:22:34.931Z,12.32
2022-09-15T11:25:06.472Z,13.75
2022-09-15T11:27:41.404Z,13.90
2022-09-15T11:30:17.390Z,18.42
2022-09-15T11:32:52.932Z,14.73
2022-09-15T11:35:33.908Z,16.02
2022-09-15T11:38:13.228Z,17.73
2022-09-15T11:40:48.045Z,14.30
2022-09-15T11:43:21.775Z,16.70
2022-09-15T11:45:54.865Z,10.30
2022-09-15T11:48:29.423Z,13.85
2022-09-15T11:51:02.465Z,12.82
2022-09-15T11:53:35.890Z,15.65
2022-09-15T11:56:13.419Z,14.68
2022-09-15T11:58:57.098Z,22.55
2022-09-15T12:01:30.052Z,10.45
2022-09-15T12:04:00.574Z,13.63
2022-09-15T12:06:34.598Z,8.95
2022-09-15T12:09:04.219Z,19.70
2022-09-15T12:11:34.896Z,23.35
2022-09-15T12:14:04.078Z,26.00
2022-09-15T12:16:33.747Z,21.52
2022-09-15T12:19:09.449Z,18.73
2022-09-15T12:21:46.899Z,19.50
2022-09-15T12:24:23.547Z,19.13
2022-09-15T12:26:51.653Z,22.25
2022-09-15T12:29:39.459Z,18.63
2022-09-15T12:32:23.576Z,15.20
2022-09-15T12:35:02.193Z,16.33
2022-09-15T12:37:40.261Z,14.52
2022-09-15T12:40:26.498Z,14.32
2022-09-15T12:42:54.676Z,10.80
2022-09-15T12:45:25.524Z,11.38
2022-09-15T12:47:56.140Z,10.52
2022-09-15T12:50:27.632Z,14.05
2022-09-15T12:52:59.211Z,19.38
2022-09-15T12:55:29.752Z,13.48
2022-09-15T12:57:59.583Z,14.60
2022-09-15T13:00:36.124Z,13.80
2022-09-15T13:03:06.087Z,13.20
2022-09-15T13:06:06.265Z,12.10
2022-09-15T13:08:53.351Z,16.58
2022-09-15T13:11:28.356Z,10.38
2022-09-15T13:14:09.173Z,16.27
2022-09-15T13:16:45.970Z,12.80
2022-09-15T13:19:19.495Z,13.80
2022-09-15T13:21:55.844Z,8.02
2022-09-15T13:24:29.957Z,12.27
2022-09-15T13:26:58.342Z,8.35
2022-09-15T13:29:28.308Z,9.30
2022-09-15T13:32:08.808Z,8.73
2022-09-15T13:35:07.168Z,11.32
2022-09-15T13:38:12.188Z,10.25
2022-09-15T13:41:14.965Z,14.07
2022-09-15T13:44:05.883Z,16.50
2022-09-15T13:46:46.791Z,16.50
2022-09-15T13:49:31.599Z,17.90
2022-09-15T13:52:07.488Z,15.43
2022-09-15T13:54:34.929Z,17.30
2022-09-15T13:57:04.244Z,16.65
2022-09-15T13:59:33.500Z,19.02
2022-09-15T14:02:01.441Z,18.70
2022-09-15T14:04:31.892Z,16.13
2022-09-15T14:07:01.879Z,19.65
2022-09-15T14:09:35.537Z,11.68
2022-09-15T14:12:10.511Z,14.05
2022-09-15T14:14:41.199Z,14.75
2022-09-15T14:17:19.185Z,11.10
2022-09-15T14:19:49.357Z,9.68
2022-09-15T14:22:24.894Z,10.57
2022-09-15T14:24:53.571Z,12.63
2022-09-15T14:27:24.754Z,10.05
2022-09-15T14:29:54.140Z,11.98
2022-09-15T14:32:22.060Z,9.10
2022-09-15T14:34:49.617Z,9.73
2022-09-15T14:37:21.847Z,11.45
2022-09-15T14:39:53.323Z,12.57
2022-09-15T14:42:24.042Z,9.85
2022-09-15T14:47:40.420Z,8.57
2022-09-15T14:50:12.298Z,10.00
2022-09-15T14:52:41.811Z,8.02
2022-09-15T14:55:15.206Z,8.75
2022-09-15T14:57:50.642Z,11.15
2022-09-15T15:00:21.879Z,8.68
2022-09-15T15:03:00.842Z,9.27
2022-09-15T15:05:32.015Z,9.77
2022-09-15T15:08:03.204Z,12.88
2022-09-15T15:10:35.469Z,10.88
2022-09-15T15:13:09.169Z,9.95
2022-09-15T15:15:38.314Z,7.70
2022-09-15T15:18:30.998Z,12.27
2022-09-15T15:20:59.561Z,9.02
2022-09-15T15:23:27.716Z,10.10
2022-09-15T15:26:25.380Z,9.40
2022-09-15T15:28:54.311Z,7.95
2022-09-15T15:31:24.899Z,6.33
2022-09-15T15:33:54.145Z,8.98
2022-09-15T15:36:23.605Z,7.73
2022-09-15T15:38:53.551Z,7.20
2022-09-15T15:41:23.519Z,6.70
2022-09-15T15:44:04.269Z,5.88
2022-09-15T15:46:53.308Z,8.55
2022-09-15T15:49:24.592Z,6.88
2022-09-15T15:51:53.800Z,7.60
2022-09-15T15:54:21.476Z,13.80
2022-09-15T15:56:49.073Z,11.18
2022-09-15T15:59:18.222Z,11.55
2022-09-15T16:01:49.711Z,11.70
2022-09-15T16:04:17.230Z,13.02
2022-09-15T16:06:45.234Z,12.88
2022-09-15T16:09:14.894Z,12.50
2022-09-15T16:11:42.704Z,10.63
2022-09-15T16:14:12.379Z,13.43
2022-09-15T16:16:41.802Z,12.27
2022-09-15T16:19:09.311Z,12.68
2022-09-15T16:21:40.772Z,11.18
2022-09-15T16:24:13.119Z,11.23
2022-09-15T16:26:41.154Z,9.27
2022-09-15T16:29:08.643Z,12.65
2022-09-15T16:31:36.706Z,12.80
2022-09-15T16:34:05.654Z,13.90
2022-09-15T16:36:35.407Z,13.23
2022-09-15T16:41:30.204Z,16.45
2022-09-15T16:43:57.693Z,12.73
2022-09-15T16:46:25.301Z,12.80
2022-09-15T16:48:52.840Z,12.68
2022-09-15T16:51:29.542Z,12.90
2022-09-15T16:53:58.930Z,12.27
2022-09-15T16:56:26.543Z,12.75
2022-09-15T16:58:59.604Z,15.57
2022-09-15T17:01:28.326Z,13.30
2022-09-15T17:03:55.750Z,14.10
2022-09-15T17:06:24.671Z,13.30
2022-09-15T17:08:52.224Z,15.02
2022-09-15T17:11:20.713Z,14.63
2022-09-15T17:13:48.153Z,14.00
2022-09-15T17:16:18.393Z,15.45
2022-09-15T17:18:45.841Z,14.38
2022-09-15T17:21:14.042Z,18.23
2022-09-15T17:23:45.217Z,11.57
2022-09-15T17:26:14.502Z,15.27
2022-09-15T17:28:42.067Z,13.27
2022-09-15T17:31:14.981Z,13.93
2022-09-15T17:33:42.786Z,11.45
2022-09-15T17:36:10.820Z,13.35
2022-09-15T17:38:38.688Z,11.02
2022-09-15T17:41:08.060Z,12.95
2022-09-15T17:43:35.464Z,10.88
2022-09-15T17:46:03.168Z,13.93
2022-09-15T17:48:30.713Z,11.80
2022-09-15T17:50:58.807Z,11.73
2022-09-15T17:53:27.475Z,11.90
2022-09-15T17:55:56.203Z,10.60
2022-09-15T17:58:25.597Z,11.27
2022-09-15T18:00:53.443Z,14.05
2022-09-15T18:03:24.648Z,12.25
2022-09-15T18:05:52.353Z,10.90
2022-09-15T18:08:19.811Z,12.70
2022-09-15T18:10:47.808Z,11.82
2022-09-15T18:13:17.122Z,11.35
2022-09-15T18:15:46.792Z,11.93
2022-09-15T18:18:15.657Z,12.95
2022-09-15T18:20:43.781Z,10.10
2022-09-15T18:23:14.257Z,9.70
2022-09-15T18:25:43.293Z,11.15
2022-09-15T18:28:11.245Z,9.98
2022-09-15T18:30:41.859Z,10.75
2022-09-15T18:33:14.568Z,13.35
2022-09-15T18:35:42.605Z,11.02
2022-09-15T18:38:10.680Z,9.32
2022-09-15T18:40:38.709Z,12.65
2022-09-15T18:43:06.148Z,13.10
2022-09-15T18:45:33.542Z,12.88
2022-09-15T18:48:01.070Z,12.70
2022-09-15T18:50:30.011Z,11.02
2022-09-15T18:52:57.968Z,11.23
2022-09-15T18:55:25.385Z,10.70
2022-09-15T18:57:52.920Z,14.95
2022-09-15T19:00:24.091Z,9.88
2022-09-15T19:02:56.953Z,10.00
2022-09-15T19:05:24.809Z,11.00
2022-09-15T19:07:53.910Z,12.30
2022-09-15T19:10:21.840Z,11.18
2022-09-15T19:12:49.351Z,11.15
2022-09-15T19:15:17.348Z,13.02
2022-09-15T19:17:45.343Z,12.60
2022-09-15T19:20:14.896Z,12.65
2022-09-15T19:22:42.560Z,12.65
2022-09-15T19:25:11.884Z,11.15
2022-09-15T19:27:39.897Z,8.82
2022-09-15T19:30:08.971Z,10.25
2022-09-15T19:32:36.404Z,10.68
2022-09-15T19:35:04.168Z,9.25
2022-09-15T19:37:31.580Z,9.60
2022-09-15T19:39:59.055Z,12.57
2022-09-15T19:42:28.057Z,10.98
2022-09-15T19:44:55.443Z,10.65
2022-09-15T19:47:22.869Z,10.70
2022-09-15T19:49:51.803Z,10.35
2022-09-15T19:52:19.314Z,11.45
2022-09-15T19:54:46.763Z,12.48
2022-09-15T19:57:14.286Z,9.30
2022-09-15T19:59:43.313Z,9.75
2022-09-15T20:02:11.370Z,12.80
2022-09-15T20:04:39.028Z,8.77
2022-09-15T20:07:07.011Z,9.73
2022-09-15T20:09:34.584Z,9.82
2022-09-15T20:12:02.388Z,10.07
2022-09-15T20:14:30.179Z,9.20
2022-09-15T20:17:01.170Z,9.52
2022-09-15T20:19:29.708Z,9.38
2022-09-15T20:21:57.652Z,8.82
2022-09-15T20:24:25.296Z,8.63
2022-09-15T20:26:52.981Z,9.98
2022-09-15T20:29:20.584Z,8.50
2022-09-15T20:31:48.285Z,8.38
2022-09-15T20:34:17.503Z,9.50
2022-09-15T20:36:45.440Z,9.02
2022-09-15T20:39:14.913Z,9.57
2022-09-15T20:41:43.270Z,8.05
2022-09-15T20:44:10.714Z,8.50
2022-09-15T20:46:38.343Z,9.55
2022-09-15T20:49:05.911Z,9.05
2022-09-15T20:51:34.966Z,9.00
2022-09-15T20:54:03.227Z,9.50
2022-09-15T20:56:32.802Z,10.68
2022-09-15T20:59:00.684Z,12.27
2022-09-15T21:01:30.082Z,9.38
2022-09-15T21:03:57.645Z,10.10
2022-09-15T21:06:26.891Z,8.82
2022-09-15T21:08:56.516Z,9.18
2022-09-15T21:11:25.448Z,9.70
2022-09-15T21:13:52.943Z,8.60
2022-09-15T21:16:47.626Z,9.10
2022-09-15T21:19:59.727Z,7.10
2022-09-15T21:23:48.594Z,9.02
2022-09-15T21:26:43.736Z,9.20
2022-09-15T21:29:34.601Z,8.77
2022-09-15T21:32:33.220Z,9.45
2022-09-15T21:35:19.337Z,9.43
2022-09-15T21:38:02.377Z,8.38
2022-09-15T21:40:53.287Z,11.48
2022-09-15T21:44:11.035Z,7.43
2022-09-15T21:49:41.292Z,8.05
2022-09-15T21:52:32.015Z,8.02
2022-09-15T21:55:08.932Z,7.68
2022-09-15T21:58:18.871Z,7.82
2022-09-15T22:04:10.660Z,6.97
2022-09-15T22:07:23.925Z,7.07
2022-09-15T22:16:06.570Z,8.45
2022-09-15T22:18:57.752Z,7.22
2022-09-15T22:24:57.320Z,6.78
2022-09-15T22:27:56.126Z,6.05
2022-09-15T22:30:39.267Z,5.97
2022-09-15T22:33:58.371Z,8.80
2022-09-15T22:36:36.650Z,9.05
2022-09-15T22:39:19.931Z,6.15
2022-09-15T22:41:47.355Z,7.50
2022-09-15T22:44:19.022Z,9.60
2022-09-15T22:46:46.458Z,6.05
2022-09-15T22:49:15.286Z,9.13
2022-09-15T22:51:42.740Z,8.70
2022-09-15T22:54:10.173Z,6.53
2022-09-15T22:56:38.109Z,7.47
2022-09-15T22:59:05.536Z,8.80
2022-09-15T23:01:32.898Z,8.23
2022-09-15T23:04:02.143Z,7.13
2022-09-15T23:06:33.147Z,5.55
2022-09-15T23:09:03.895Z,8.70
2022-09-15T23:11:33.354Z,7.60
2022-09-15T23:14:01.449Z,8.18
2022-09-15T23:16:30.755Z,8.73
2022-09-15T23:18:58.629Z,8.38
2022-09-15T23:21:26.166Z,10.73
2022-09-15T23:23:55.471Z,8.05
2022-09-15T23:26:24.477Z,8.02
2022-09-15T23:28:52.854Z,8.18
2022-09-15T23:31:20.652Z,9.07
2022-09-15T23:33:48.561Z,6.53
2022-09-15T23:36:18.008Z,8.40
2022-09-15T23:38:46.431Z,7.30
2022-09-15T23:41:16.046Z,9.60
2022-09-15T23:43:43.782Z,6.65
2022-09-15T23:46:11.359Z,9.50
2022-09-15T23:48:38.989Z,8.02
2022-09-15T23:51:06.858Z,8.90
2022-09-15T23:53:35.031Z,8.73
2022-09-15T23:56:02.964Z,7.90
2022-09-15T23:58:31.833Z,8.90
